sensor_id;sensor_type;location;lat;lon;timestamp;pressure;altitude;pressure_sealevel;temperature;humidity
77235;BME280;66253;50.526;14.974;2023-12-28T00:00:17;99326.88;;;1.74;90.58
77235;BME280;66253;50.526;14.974;2023-12-28T00:02:46;99326.88;;;1.75;90.53
77235;BME280;66253;50.526;14.974;2023-12-28T00:05:14;99326.90;;;1.74;90.23
77235;BME280;66253;50.526;14.974;2023-12-28T00:07:42;99322.38;;;1.73;90.31
77235;BME280;66253;50.526;14.974;2023-12-28T00:10:14;99320.54;;;1.71;90.45
77235;BME280;66253;50.526;14.974;2023-12-28T00:12:44;99322.94;;;1.70;90.29
77235;BME280;66253;50.526;14.974;2023-12-28T00:15:12;99325.48;;;1.69;90.45
77235;BME280;66253;50.526;14.974;2023-12-28T00:17:40;99328.34;;;1.68;90.60
77235;BME280;66253;50.526;14.974;2023-12-28T00:20:10;99324.36;;;1.66;90.50
77235;BME280;66253;50.526;14.974;2023-12-28T00:22:39;99316.10;;;1.65;90.46
77235;BME280;66253;50.526;14.974;2023-12-28T00:25:08;99309.94;;;1.62;90.38
77235;BME280;66253;50.526;14.974;2023-12-28T00:27:36;99309.28;;;1.61;90.68
77235;BME280;66253;50.526;14.974;2023-12-28T00:30:05;99304.60;;;1.59;90.45
77235;BME280;66253;50.526;14.974;2023-12-28T00:32:34;99301.63;;;1.57;90.38
77235;BME280;66253;50.526;14.974;2023-12-28T00:35:02;99305.67;;;1.55;90.84
77235;BME280;66253;50.526;14.974;2023-12-28T00:37:31;99298.96;;;1.54;90.76
77235;BME280;66253;50.526;14.974;2023-12-28T00:39:59;99292.27;;;1.52;90.77
77235;BME280;66253;50.526;14.974;2023-12-28T00:42:27;99299.33;;;1.52;90.48
77235;BME280;66253;50.526;14.974;2023-12-28T00:44:56;99294.32;;;1.51;90.43
77235;BME280;66253;50.526;14.974;2023-12-28T00:47:24;99298.05;;;1.49;90.41
77235;BME280;66253;50.526;14.974;2023-12-28T00:49:52;99290.85;;;1.47;90.46
77235;BME280;66253;50.526;14.974;2023-12-28T00:52:20;99285.67;;;1.44;90.50
77235;BME280;66253;50.526;14.974;2023-12-28T00:54:49;99284.37;;;1.43;90.42
77235;BME280;66253;50.526;14.974;2023-12-28T00:57:17;99276.34;;;1.40;90.52
77235;BME280;66253;50.526;14.974;2023-12-28T00:59:45;99269.64;;;1.38;90.35
77235;BME280;66253;50.526;14.974;2023-12-28T01:02:13;99264.98;;;1.35;90.38
77235;BME280;66253;50.526;14.974;2023-12-28T01:04:42;99275.26;;;1.34;90.81
77235;BME280;66253;50.526;14.974;2023-12-28T01:07:10;99284.21;;;1.32;90.66
77235;BME280;66253;50.526;14.974;2023-12-28T01:09:38;99289.30;;;1.30;90.60
77235;BME280;66253;50.526;14.974;2023-12-28T01:12:07;99290.67;;;1.28;90.70
77235;BME280;66253;50.526;14.974;2023-12-28T01:14:35;99289.54;;;1.26;90.37
77235;BME280;66253;50.526;14.974;2023-12-28T01:17:04;99288.27;;;1.21;90.30
77235;BME280;66253;50.526;14.974;2023-12-28T01:19:32;99289.00;;;1.17;90.30
77235;BME280;66253;50.526;14.974;2023-12-28T01:22:00;99283.36;;;1.13;90.22
77235;BME280;66253;50.526;14.974;2023-12-28T01:24:29;99280.36;;;1.11;90.54
77235;BME280;66253;50.526;14.974;2023-12-28T01:26:57;99286.95;;;1.10;90.58
77235;BME280;66253;50.526;14.974;2023-12-28T01:29:28;99288.64;;;1.08;90.50
77235;BME280;66253;50.526;14.974;2023-12-28T01:31:56;99291.36;;;1.07;90.53
77235;BME280;66253;50.526;14.974;2023-12-28T01:34:25;99295.92;;;1.06;90.71
77235;BME280;66253;50.526;14.974;2023-12-28T01:36:53;99279.27;;;1.06;90.86
77235;BME280;66253;50.526;14.974;2023-12-28T01:39:21;99277.27;;;1.04;90.70
77235;BME280;66253;50.526;14.974;2023-12-28T01:41:49;99285.38;;;1.02;90.58
77235;BME280;66253;50.526;14.974;2023-12-28T01:44:18;99275.70;;;0.98;90.42
77235;BME280;66253;50.526;14.974;2023-12-28T01:46:46;99275.30;;;0.91;90.32
77235;BME280;66253;50.526;14.974;2023-12-28T01:49:15;99268.66;;;0.86;90.14
77235;BME280;66253;50.526;14.974;2023-12-28T01:51:43;99265.06;;;0.80;89.93
77235;BME280;66253;50.526;14.974;2023-12-28T01:54:12;99279.89;;;0.77;90.15
77235;BME280;66253;50.526;14.974;2023-12-28T01:56:41;99284.83;;;0.73;90.27
77235;BME280;66253;50.526;14.974;2023-12-28T01:59:10;99292.06;;;0.73;90.55
77235;BME280;66253;50.526;14.974;2023-12-28T02:01:38;99286.52;;;0.72;90.73
77235;BME280;66253;50.526;14.974;2023-12-28T02:04:07;99284.34;;;0.72;90.93
77235;BME280;66253;50.526;14.974;2023-12-28T02:06:35;99278.45;;;0.72;90.74
77235;BME280;66253;50.526;14.974;2023-12-28T02:09:04;99268.90;;;0.70;90.73
77235;BME280;66253;50.526;14.974;2023-12-28T02:11:32;99261.02;;;0.69;90.89
77235;BME280;66253;50.526;14.974;2023-12-28T02:14:01;99272.69;;;0.64;90.77
77235;BME280;66253;50.526;14.974;2023-12-28T02:16:33;99278.24;;;0.62;91.23
77235;BME280;66253;50.526;14.974;2023-12-28T02:19:12;99269.56;;;0.60;91.24
77235;BME280;66253;50.526;14.974;2023-12-28T02:21:46;99262.35;;;0.58;91.41
77235;BME280;66253;50.526;14.974;2023-12-28T02:24:15;99261.20;;;0.56;91.03
77235;BME280;66253;50.526;14.974;2023-12-28T02:26:44;99259.56;;;0.54;90.95
77235;BME280;66253;50.526;14.974;2023-12-28T02:29:12;99264.61;;;0.54;91.29
77235;BME280;66253;50.526;14.974;2023-12-28T02:31:45;99263.44;;;0.54;91.32
77235;BME280;66253;50.526;14.974;2023-12-28T02:34:19;99256.55;;;0.53;91.13
77235;BME280;66253;50.526;14.974;2023-12-28T02:36:51;99250.52;;;0.52;90.99
77235;BME280;66253;50.526;14.974;2023-12-28T02:39:21;99249.06;;;0.48;90.83
77235;BME280;66253;50.526;14.974;2023-12-28T02:41:50;99240.38;;;0.44;90.63
77235;BME280;66253;50.526;14.974;2023-12-28T02:44:19;99246.64;;;0.41;91.05
77235;BME280;66253;50.526;14.974;2023-12-28T02:46:47;99241.62;;;0.39;90.92
77235;BME280;66253;50.526;14.974;2023-12-28T02:49:16;99236.45;;;0.38;91.01
77235;BME280;66253;50.526;14.974;2023-12-28T02:51:44;99235.61;;;0.37;91.22
77235;BME280;66253;50.526;14.974;2023-12-28T02:54:12;99237.15;;;0.35;91.01
77235;BME280;66253;50.526;14.974;2023-12-28T02:56:42;99237.02;;;0.34;90.87
77235;BME280;66253;50.526;14.974;2023-12-28T02:59:10;99242.59;;;0.31;90.83
77235;BME280;66253;50.526;14.974;2023-12-28T03:01:38;99249.54;;;0.27;90.98
77235;BME280;66253;50.526;14.974;2023-12-28T03:04:06;99250.89;;;0.25;91.19
77235;BME280;66253;50.526;14.974;2023-12-28T03:06:35;99243.39;;;0.21;90.71
77235;BME280;66253;50.526;14.974;2023-12-28T03:09:03;99238.71;;;0.19;91.07
77235;BME280;66253;50.526;14.974;2023-12-28T03:11:31;99249.16;;;0.17;91.12
77235;BME280;66253;50.526;14.974;2023-12-28T03:14:00;99225.17;;;0.15;91.26
77235;BME280;66253;50.526;14.974;2023-12-28T03:16:28;99201.56;;;0.10;90.93
77235;BME280;66253;50.526;14.974;2023-12-28T03:18:56;99196.08;;;0.05;91.17
77235;BME280;66253;50.526;14.974;2023-12-28T03:21:24;99207.35;;;0.03;91.49
77235;BME280;66253;50.526;14.974;2023-12-28T03:23:52;99208.70;;;0.03;91.70
77235;BME280;66253;50.526;14.974;2023-12-28T03:26:21;99213.73;;;0.03;91.87
77235;BME280;66253;50.526;14.974;2023-12-28T03:28:49;99214.23;;;0.04;91.94
77235;BME280;66253;50.526;14.974;2023-12-28T03:31:17;99201.96;;;0.05;91.90
77235;BME280;66253;50.526;14.974;2023-12-28T03:33:46;99203.29;;;0.06;91.98
77235;BME280;66253;50.526;14.974;2023-12-28T03:36:20;99216.88;;;0.06;92.01
77235;BME280;66253;50.526;14.974;2023-12-28T03:38:48;99213.02;;;0.06;92.08
77235;BME280;66253;50.526;14.974;2023-12-28T03:41:20;99217.23;;;0.07;92.19
77235;BME280;66253;50.526;14.974;2023-12-28T03:43:48;99228.46;;;0.08;92.41
77235;BME280;66253;50.526;14.974;2023-12-28T03:46:17;99231.46;;;0.08;92.27
77235;BME280;66253;50.526;14.974;2023-12-28T03:48:45;99229.10;;;0.09;92.30
77235;BME280;66253;50.526;14.974;2023-12-28T03:51:16;99221.70;;;0.10;92.56
77235;BME280;66253;50.526;14.974;2023-12-28T03:53:44;99222.02;;;0.12;92.61
77235;BME280;66253;50.526;14.974;2023-12-28T03:56:21;99223.69;;;0.12;92.35
77235;BME280;66253;50.526;14.974;2023-12-28T03:58:50;99222.56;;;0.09;92.11
77235;BME280;66253;50.526;14.974;2023-12-28T04:01:19;99207.98;;;0.07;91.89
77235;BME280;66253;50.526;14.974;2023-12-28T04:03:48;99209.36;;;0.03;91.68
77235;BME280;66253;50.526;14.974;2023-12-28T04:06:17;99216.17;;;-0.02;91.78
77235;BME280;66253;50.526;14.974;2023-12-28T04:08:45;99217.07;;;-0.08;91.88
77235;BME280;66253;50.526;14.974;2023-12-28T04:11:13;99219.95;;;-0.11;92.24
77235;BME280;66253;50.526;14.974;2023-12-28T04:13:41;99214.41;;;-0.10;92.52
77235;BME280;66253;50.526;14.974;2023-12-28T04:16:13;99216.92;;;-0.09;92.58
77235;BME280;66253;50.526;14.974;2023-12-28T04:18:42;99207.38;;;-0.10;92.33
77235;BME280;66253;50.526;14.974;2023-12-28T04:21:11;99203.34;;;-0.11;92.56
77235;BME280;66253;50.526;14.974;2023-12-28T04:23:41;99206.70;;;-0.11;92.63
77235;BME280;66253;50.526;14.974;2023-12-28T04:26:09;99204.36;;;-0.12;92.98
77235;BME280;66253;50.526;14.974;2023-12-28T04:28:38;99202.89;;;-0.15;92.62
77235;BME280;66253;50.526;14.974;2023-12-28T04:31:07;99216.83;;;-0.15;92.65
77235;BME280;66253;50.526;14.974;2023-12-28T04:33:35;99218.17;;;-0.15;92.87
77235;BME280;66253;50.526;14.974;2023-12-28T04:36:04;99216.13;;;-0.14;92.90
77235;BME280;66253;50.526;14.974;2023-12-28T04:38:32;99218.14;;;-0.13;93.01
77235;BME280;66253;50.526;14.974;2023-12-28T04:41:01;99218.30;;;-0.11;92.94
77235;BME280;66253;50.526;14.974;2023-12-28T04:43:29;99218.81;;;-0.12;92.69
77235;BME280;66253;50.526;14.974;2023-12-28T04:46:01;99216.98;;;-0.14;92.80
77235;BME280;66253;50.526;14.974;2023-12-28T04:48:30;99205.77;;;-0.17;92.74
77235;BME280;66253;50.526;14.974;2023-12-28T04:51:01;99210.87;;;-0.21;92.14
77235;BME280;66253;50.526;14.974;2023-12-28T04:53:30;99224.48;;;-0.24;92.54
77235;BME280;66253;50.526;14.974;2023-12-28T04:55:59;99227.85;;;-0.25;92.34
77235;BME280;66253;50.526;14.974;2023-12-28T04:58:27;99242.98;;;-0.26;92.28
77235;BME280;66253;50.526;14.974;2023-12-28T05:00:55;99248.02;;;-0.26;92.30
77235;BME280;66253;50.526;14.974;2023-12-28T05:03:23;99239.80;;;-0.27;92.49
77235;BME280;66253;50.526;14.974;2023-12-28T05:05:52;99246.34;;;-0.26;92.25
77235;BME280;66253;50.526;14.974;2023-12-28T05:08:20;99240.63;;;-0.27;92.18
77235;BME280;66253;50.526;14.974;2023-12-28T05:10:48;99230.23;;;-0.28;92.03
77235;BME280;66253;50.526;14.974;2023-12-28T05:13:16;99230.62;;;-0.31;92.16
77235;BME280;66253;50.526;14.974;2023-12-28T05:15:44;99245.40;;;-0.32;92.35
77235;BME280;66253;50.526;14.974;2023-12-28T05:18:13;99250.64;;;-0.35;92.43
77235;BME280;66253;50.526;14.974;2023-12-28T05:20:41;99254.97;;;-0.33;92.79
77235;BME280;66253;50.526;14.974;2023-12-28T05:23:09;99266.05;;;-0.32;92.92
77235;BME280;66253;50.526;14.974;2023-12-28T05:25:37;99260.48;;;-0.31;93.04
77235;BME280;66253;50.526;14.974;2023-12-28T05:28:06;99243.02;;;-0.31;92.71
77235;BME280;66253;50.526;14.974;2023-12-28T05:30:34;99248.09;;;-0.33;92.71
77235;BME280;66253;50.526;14.974;2023-12-28T05:33:02;99252.27;;;-0.33;93.38
77235;BME280;66253;50.526;14.974;2023-12-28T05:35:30;99248.09;;;-0.33;93.61
77235;BME280;66253;50.526;14.974;2023-12-28T05:37:59;99248.15;;;-0.39;93.54
77235;BME280;66253;50.526;14.974;2023-12-28T05:40:27;99264.61;;;-0.40;93.73
77235;BME280;66253;50.526;14.974;2023-12-28T05:42:55;99260.41;;;-0.40;93.72
77235;BME280;66253;50.526;14.974;2023-12-28T05:45:23;99247.98;;;-0.38;93.95
77235;BME280;66253;50.526;14.974;2023-12-28T05:47:51;99236.05;;;-0.35;93.91
77235;BME280;66253;50.526;14.974;2023-12-28T05:50:20;99228.47;;;-0.34;93.74
77235;BME280;66253;50.526;14.974;2023-12-28T05:52:48;99233.49;;;-0.34;93.91
77235;BME280;66253;50.526;14.974;2023-12-28T05:55:16;99238.71;;;-0.34;93.60
77235;BME280;66253;50.526;14.974;2023-12-28T05:57:44;99231.37;;;-0.38;93.61
77235;BME280;66253;50.526;14.974;2023-12-28T06:00:14;99237.45;;;-0.41;93.47
77235;BME280;66253;50.526;14.974;2023-12-28T06:02:42;99236.10;;;-0.40;93.63
77235;BME280;66253;50.526;14.974;2023-12-28T06:05:11;99237.42;;;-0.38;93.78
77235;BME280;66253;50.526;14.974;2023-12-28T06:07:39;99239.93;;;-0.39;93.73
77235;BME280;66253;50.526;14.974;2023-12-28T06:10:08;99234.71;;;-0.36;93.57
77235;BME280;66253;50.526;14.974;2023-12-28T06:12:37;99227.82;;;-0.36;93.48
77235;BME280;66253;50.526;14.974;2023-12-28T06:15:06;99227.66;;;-0.37;93.18
77235;BME280;66253;50.526;14.974;2023-12-28T06:17:35;99224.98;;;-0.37;93.31
77235;BME280;66253;50.526;14.974;2023-12-28T06:20:04;99232.66;;;-0.35;93.81
77235;BME280;66253;50.526;14.974;2023-12-28T06:22:33;99235.00;;;-0.32;94.02
77235;BME280;66253;50.526;14.974;2023-12-28T06:25:01;99238.83;;;-0.30;94.20
77235;BME280;66253;50.526;14.974;2023-12-28T06:27:32;99239.97;;;-0.28;94.18
77235;BME280;66253;50.526;14.974;2023-12-28T06:30:00;99237.58;;;-0.24;94.54
77235;BME280;66253;50.526;14.974;2023-12-28T06:32:28;99239.73;;;-0.21;94.70
77235;BME280;66253;50.526;14.974;2023-12-28T06:34:57;99236.67;;;-0.19;94.53
77235;BME280;66253;50.526;14.974;2023-12-28T06:37:25;99241.81;;;-0.13;95.01
77235;BME280;66253;50.526;14.974;2023-12-28T06:39:53;99240.06;;;-0.07;95.39
77235;BME280;66253;50.526;14.974;2023-12-28T06:42:21;99253.26;;;-0.01;95.37
77235;BME280;66253;50.526;14.974;2023-12-28T06:44:49;99257.71;;;0.05;95.37
77235;BME280;66253;50.526;14.974;2023-12-28T06:47:18;99257.81;;;0.09;95.40
77235;BME280;66253;50.526;14.974;2023-12-28T06:49:46;99245.66;;;0.15;95.65
77235;BME280;66253;50.526;14.974;2023-12-28T06:52:14;99243.73;;;0.20;95.50
77235;BME280;66253;50.526;14.974;2023-12-28T06:54:42;99240.48;;;0.25;95.75
77235;BME280;66253;50.526;14.974;2023-12-28T06:57:11;99246.30;;;0.29;95.46
77235;BME280;66253;50.526;14.974;2023-12-28T06:59:39;99252.59;;;0.36;95.94
77235;BME280;66253;50.526;14.974;2023-12-28T07:02:07;99246.31;;;0.41;95.69
77235;BME280;66253;50.526;14.974;2023-12-28T07:04:36;99242.38;;;0.45;95.74
77235;BME280;66253;50.526;14.974;2023-12-28T07:07:04;99257.48;;;0.47;95.96
77235;BME280;66253;50.526;14.974;2023-12-28T07:09:32;99268.34;;;0.51;96.00
77235;BME280;66253;50.526;14.974;2023-12-28T07:12:01;99265.43;;;0.55;95.89
77235;BME280;66253;50.526;14.974;2023-12-28T07:14:29;99252.91;;;0.60;96.12
77235;BME280;66253;50.526;14.974;2023-12-28T07:16:57;99243.42;;;0.65;96.33
77235;BME280;66253;50.526;14.974;2023-12-28T07:19:25;99241.80;;;0.72;96.21
77235;BME280;66253;50.526;14.974;2023-12-28T07:21:53;99229.45;;;0.77;96.22
77235;BME280;66253;50.526;14.974;2023-12-28T07:24:22;99233.59;;;0.82;96.28
77235;BME280;66253;50.526;14.974;2023-12-28T07:26:50;99237.54;;;0.86;96.43
77235;BME280;66253;50.526;14.974;2023-12-28T07:29:18;99239.80;;;0.92;96.42
77235;BME280;66253;50.526;14.974;2023-12-28T07:31:46;99245.42;;;0.98;96.16
77235;BME280;66253;50.526;14.974;2023-12-28T07:34:14;99250.20;;;1.04;96.30
77235;BME280;66253;50.526;14.974;2023-12-28T07:36:43;99254.52;;;1.09;96.20
77235;BME280;66253;50.526;14.974;2023-12-28T07:39:11;99255.80;;;1.11;96.29
77235;BME280;66253;50.526;14.974;2023-12-28T07:41:39;99255.05;;;1.15;96.30
77235;BME280;66253;50.526;14.974;2023-12-28T07:44:08;99253.98;;;1.19;96.19
77235;BME280;66253;50.526;14.974;2023-12-28T07:46:36;99259.63;;;1.24;96.22
77235;BME280;66253;50.526;14.974;2023-12-28T07:49:04;99246.95;;;1.27;96.06
77235;BME280;66253;50.526;14.974;2023-12-28T07:51:35;99242.05;;;1.28;96.08
77235;BME280;66253;50.526;14.974;2023-12-28T07:54:03;99257.52;;;1.29;96.28
77235;BME280;66253;50.526;14.974;2023-12-28T07:56:32;99261.08;;;1.27;96.52
77235;BME280;66253;50.526;14.974;2023-12-28T07:59:00;99257.56;;;1.26;96.53
77235;BME280;66253;50.526;14.974;2023-12-28T08:01:29;99265.77;;;1.28;96.52
77235;BME280;66253;50.526;14.974;2023-12-28T08:03:57;99280.34;;;1.32;96.61
77235;BME280;66253;50.526;14.974;2023-12-28T08:06:26;99275.05;;;1.36;96.89
77235;BME280;66253;50.526;14.974;2023-12-28T08:08:54;99280.02;;;1.41;96.90
77235;BME280;66253;50.526;14.974;2023-12-28T08:11:22;99273.55;;;1.45;96.77
77235;BME280;66253;50.526;14.974;2023-12-28T08:13:50;99278.52;;;1.50;97.15
77235;BME280;66253;50.526;14.974;2023-12-28T08:16:19;99293.58;;;1.54;97.01
77235;BME280;66253;50.526;14.974;2023-12-28T08:18:47;99289.48;;;1.58;97.09
77235;BME280;66253;50.526;14.974;2023-12-28T08:21:15;99289.25;;;1.61;97.02
77235;BME280;66253;50.526;14.974;2023-12-28T08:23:43;99289.52;;;1.64;96.91
77235;BME280;66253;50.526;14.974;2023-12-28T08:26:11;99286.06;;;1.69;97.11
77235;BME280;66253;50.526;14.974;2023-12-28T08:28:40;99274.29;;;1.70;96.87
77235;BME280;66253;50.526;14.974;2023-12-28T08:31:08;99277.46;;;1.71;96.85
77235;BME280;66253;50.526;14.974;2023-12-28T08:33:37;99281.45;;;1.74;97.07
77235;BME280;66253;50.526;14.974;2023-12-28T08:36:06;99293.14;;;1.78;97.43
77235;BME280;66253;50.526;14.974;2023-12-28T08:38:34;99280.25;;;1.83;97.21
77235;BME280;66253;50.526;14.974;2023-12-28T08:41:03;99286.27;;;1.84;97.50
77235;BME280;66253;50.526;14.974;2023-12-28T08:43:32;99293.10;;;1.89;97.63
77235;BME280;66253;50.526;14.974;2023-12-28T08:46:00;99297.71;;;1.95;97.59
77235;BME280;66253;50.526;14.974;2023-12-28T08:48:29;99291.48;;;2.02;98.19
77235;BME280;66253;50.526;14.974;2023-12-28T08:50:57;99295.08;;;2.08;98.27
77235;BME280;66253;50.526;14.974;2023-12-28T08:53:25;99294.79;;;2.15;98.40
77235;BME280;66253;50.526;14.974;2023-12-28T08:55:54;99297.66;;;2.22;98.57
77235;BME280;66253;50.526;14.974;2023-12-28T08:58:22;99300.04;;;2.29;98.57
77235;BME280;66253;50.526;14.974;2023-12-28T09:00:50;99288.59;;;2.36;98.42
77235;BME280;66253;50.526;14.974;2023-12-28T09:03:19;99271.45;;;2.42;98.46
77235;BME280;66253;50.526;14.974;2023-12-28T09:05:47;99268.30;;;2.47;98.16
77235;BME280;66253;50.526;14.974;2023-12-28T09:08:15;99280.83;;;2.52;98.58
77235;BME280;66253;50.526;14.974;2023-12-28T09:10:43;99290.17;;;2.56;98.50
77235;BME280;66253;50.526;14.974;2023-12-28T09:13:16;99285.73;;;2.60;98.41
77235;BME280;66253;50.526;14.974;2023-12-28T09:15:44;99287.66;;;2.64;98.79
77235;BME280;66253;50.526;14.974;2023-12-28T09:18:12;99277.95;;;2.68;98.56
77235;BME280;66253;50.526;14.974;2023-12-28T09:20:40;99281.90;;;2.72;98.47
77235;BME280;66253;50.526;14.974;2023-12-28T09:23:09;99280.80;;;2.76;98.35
77235;BME280;66253;50.526;14.974;2023-12-28T09:25:37;99287.27;;;2.81;98.24
77235;BME280;66253;50.526;14.974;2023-12-28T09:28:06;99275.35;;;2.86;98.68
77235;BME280;66253;50.526;14.974;2023-12-28T09:30:34;99268.73;;;2.87;99.19
77235;BME280;66253;50.526;14.974;2023-12-28T09:33:02;99277.07;;;2.91;98.85
77235;BME280;66253;50.526;14.974;2023-12-28T09:35:30;99275.45;;;2.95;98.73
77235;BME280;66253;50.526;14.974;2023-12-28T09:37:59;99282.95;;;2.99;98.60
77235;BME280;66253;50.526;14.974;2023-12-28T09:40:27;99270.41;;;3.02;98.94
77235;BME280;66253;50.526;14.974;2023-12-28T09:43:06;99264.98;;;3.03;99.13
77235;BME280;66253;50.526;14.974;2023-12-28T09:45:37;99258.45;;;3.08;99.05
77235;BME280;66253;50.526;14.974;2023-12-28T09:48:06;99257.49;;;3.12;99.19
77235;BME280;66253;50.526;14.974;2023-12-28T09:50:35;99250.47;;;3.17;99.25
77235;BME280;66253;50.526;14.974;2023-12-28T09:53:03;99246.31;;;3.20;99.46
77235;BME280;66253;50.526;14.974;2023-12-28T09:55:32;99245.52;;;3.25;99.46
77235;BME280;66253;50.526;14.974;2023-12-28T09:58:01;99277.65;;;3.29;99.37
77235;BME280;66253;50.526;14.974;2023-12-28T10:00:31;99282.48;;;3.32;99.08
77235;BME280;66253;50.526;14.974;2023-12-28T10:03:00;99278.87;;;3.34;98.95
77235;BME280;66253;50.526;14.974;2023-12-28T10:05:28;99281.67;;;3.37;99.06
77235;BME280;66253;50.526;14.974;2023-12-28T10:07:57;99281.40;;;3.41;99.17
77235;BME280;66253;50.526;14.974;2023-12-28T10:10:25;99288.60;;;3.43;98.97
77235;BME280;66253;50.526;14.974;2023-12-28T10:12:53;99288.86;;;3.46;98.93
77235;BME280;66253;50.526;14.974;2023-12-28T10:15:21;99285.38;;;3.50;98.87
77235;BME280;66253;50.526;14.974;2023-12-28T10:17:50;99291.85;;;3.55;98.80
77235;BME280;66253;50.526;14.974;2023-12-28T10:20:19;99290.20;;;3.60;98.60
77235;BME280;66253;50.526;14.974;2023-12-28T10:22:48;99284.63;;;3.66;98.42
77235;BME280;66253;50.526;14.974;2023-12-28T10:25:19;99288.19;;;3.72;98.39
77235;BME280;66253;50.526;14.974;2023-12-28T10:27:49;99273.04;;;3.76;98.43
77235;BME280;66253;50.526;14.974;2023-12-28T10:30:19;99264.69;;;3.79;98.34
77235;BME280;66253;50.526;14.974;2023-12-28T10:32:47;99263.90;;;3.83;98.45
77235;BME280;66253;50.526;14.974;2023-12-28T10:35:16;99259.90;;;3.87;98.41
77235;BME280;66253;50.526;14.974;2023-12-28T10:37:44;99250.29;;;3.93;98.25
77235;BME280;66253;50.526;14.974;2023-12-28T10:40:14;99255.88;;;3.98;98.41
77235;BME280;66253;50.526;14.974;2023-12-28T10:42:50;99260.32;;;4.03;98.28
77235;BME280;66253;50.526;14.974;2023-12-28T10:45:20;99247.18;;;4.07;98.04
77235;BME280;66253;50.526;14.974;2023-12-28T10:47:58;99244.33;;;4.12;98.55
77235;BME280;66253;50.526;14.974;2023-12-28T10:50:28;99246.38;;;4.17;98.59
77235;BME280;66253;50.526;14.974;2023-12-28T10:53:00;99244.48;;;4.23;98.40
77235;BME280;66253;50.526;14.974;2023-12-28T10:55:38;99238.52;;;4.26;98.41
77235;BME280;66253;50.526;14.974;2023-12-28T10:58:12;99240.06;;;4.30;98.65
77235;BME280;66253;50.526;14.974;2023-12-28T11:00:47;99242.77;;;4.35;98.66
77235;BME280;66253;50.526;14.974;2023-12-28T11:03:21;99241.45;;;4.40;98.32
77235;BME280;66253;50.526;14.974;2023-12-28T11:05:52;99241.82;;;4.45;98.38
77235;BME280;66253;50.526;14.974;2023-12-28T11:08:24;99236.65;;;4.48;98.37
77235;BME280;66253;50.526;14.974;2023-12-28T11:10:53;99239.07;;;4.52;98.17
77235;BME280;66253;50.526;14.974;2023-12-28T11:13:22;99236.98;;;4.54;97.96
77235;BME280;66253;50.526;14.974;2023-12-28T11:15:52;99232.89;;;4.55;98.52
77235;BME280;66253;50.526;14.974;2023-12-28T11:18:21;99222.26;;;4.54;97.89
77235;BME280;66253;50.526;14.974;2023-12-28T11:20:51;99221.67;;;4.56;97.88
77235;BME280;66253;50.526;14.974;2023-12-28T11:23:19;99222.91;;;4.60;97.94
77235;BME280;66253;50.526;14.974;2023-12-28T11:25:48;99226.08;;;4.62;98.05
77235;BME280;66253;50.526;14.974;2023-12-28T11:28:16;99222.27;;;4.64;97.99
77235;BME280;66253;50.526;14.974;2023-12-28T11:30:47;99219.98;;;4.67;98.03
77235;BME280;66253;50.526;14.974;2023-12-28T11:33:16;99209.23;;;4.70;97.85
77235;BME280;66253;50.526;14.974;2023-12-28T11:35:48;99205.10;;;4.72;97.88
77235;BME280;66253;50.526;14.974;2023-12-28T11:38:18;99203.27;;;4.71;97.52
77235;BME280;66253;50.526;14.974;2023-12-28T11:40:47;99201.97;;;4.69;97.24
77235;BME280;66253;50.526;14.974;2023-12-28T11:43:20;99201.60;;;4.70;97.46
77235;BME280;66253;50.526;14.974;2023-12-28T11:45:54;99201.90;;;4.72;97.55
77235;BME280;66253;50.526;14.974;2023-12-28T11:48:26;99199.34;;;4.72;97.35
77235;BME280;66253;50.526;14.974;2023-12-28T11:50:58;99201.67;;;4.74;97.19
77235;BME280;66253;50.526;14.974;2023-12-28T11:53:28;99195.52;;;4.70;97.26
77235;BME280;66253;50.526;14.974;2023-12-28T11:56:02;99200.13;;;4.69;97.52
77235;BME280;66253;50.526;14.974;2023-12-28T11:58:32;99198.45;;;4.69;97.42
77235;BME280;66253;50.526;14.974;2023-12-28T12:01:00;99193.65;;;4.71;97.35
77235;BME280;66253;50.526;14.974;2023-12-28T12:03:32;99189.40;;;4.71;97.32
77235;BME280;66253;50.526;14.974;2023-12-28T12:06:01;99185.48;;;4.72;97.20
77235;BME280;66253;50.526;14.974;2023-12-28T12:08:31;99182.27;;;4.72;96.94
77235;BME280;66253;50.526;14.974;2023-12-28T12:11:06;99180.07;;;4.72;97.24
77235;BME280;66253;50.526;14.974;2023-12-28T12:13:35;99182.39;;;4.74;97.44
77235;BME280;66253;50.526;14.974;2023-12-28T12:16:07;99185.37;;;4.75;97.40
77235;BME280;66253;50.526;14.974;2023-12-28T12:18:43;99193.27;;;4.77;97.23
77235;BME280;66253;50.526;14.974;2023-12-28T12:21:13;99196.88;;;4.80;97.33
77235;BME280;66253;50.526;14.974;2023-12-28T12:23:42;99189.23;;;4.81;97.19
77235;BME280;66253;50.526;14.974;2023-12-28T12:26:11;99179.66;;;4.79;97.09
77235;BME280;66253;50.526;14.974;2023-12-28T12:28:39;99183.27;;;4.78;97.02
77235;BME280;66253;50.526;14.974;2023-12-28T12:31:11;99176.02;;;4.77;97.19
77235;BME280;66253;50.526;14.974;2023-12-28T12:33:43;99172.99;;;4.76;97.17
77235;BME280;66253;50.526;14.974;2023-12-28T12:36:12;99174.46;;;4.78;97.53
77235;BME280;66253;50.526;14.974;2023-12-28T12:38:41;99175.50;;;4.82;97.37
77235;BME280;66253;50.526;14.974;2023-12-28T12:41:13;99175.70;;;4.86;97.36
77235;BME280;66253;50.526;14.974;2023-12-28T12:43:43;99174.23;;;4.90;97.38
77235;BME280;66253;50.526;14.974;2023-12-28T12:46:11;99171.70;;;4.89;97.22
77235;BME280;66253;50.526;14.974;2023-12-28T12:48:40;99175.36;;;4.91;97.42
77235;BME280;66253;50.526;14.974;2023-12-28T12:51:09;99169.83;;;4.95;97.03
77235;BME280;66253;50.526;14.974;2023-12-28T12:53:40;99167.21;;;4.97;97.04
77235;BME280;66253;50.526;14.974;2023-12-28T12:56:12;99163.77;;;4.99;96.78
77235;BME280;66253;50.526;14.974;2023-12-28T12:58:41;99166.57;;;5.01;97.07
77235;BME280;66253;50.526;14.974;2023-12-28T13:01:12;99160.04;;;5.04;96.81
77235;BME280;66253;50.526;14.974;2023-12-28T13:03:43;99164.59;;;5.05;96.59
77235;BME280;66253;50.526;14.974;2023-12-28T13:06:14;99161.88;;;5.05;96.58